Terminal Aerodrome Forecast
Issued by NWS

Home | Current Version | Previous Version | Text Only | Print | Product List | Glossary On
Versions: 1 2 3 4 5 6 7 8 9 10 11 12 13 14 15 16 17 18 19 20 21 22 23 24 25 26 27 28 29 30 31 32 33 34 35 36
000
FTUS45 KBYZ 310312 AAC
TAFLVM
TAF AMD
KLVM 310312Z 3103/3124 24025G35KT P6SM SCT100
      TEMPO 3103/3104 34012KT
     FM310400 33025G35KT P6SM SCT100
     FM310800 27020G30KT P6SM SCT100
     FM311200 25013KT P6SM FEW100=

USA.gov is the U.S. government's official web portal to all federal, state and local government web resources and services.